createdAt,value
2018-05-29T00:01:21.266Z,23.06
2018-05-29T00:03:48.742Z,23.11
2018-05-29T00:06:16.249Z,22.91
2018-05-29T00:08:43.755Z,22.88
2018-05-29T00:11:11.273Z,22.90
2018-05-29T00:13:38.759Z,22.82
2018-05-29T00:16:06.253Z,22.72
2018-05-29T00:18:33.767Z,22.73
2018-05-29T00:21:01.402Z,22.66
2018-05-29T00:23:28.925Z,22.68
2018-05-29T00:25:56.398Z,22.66
2018-05-29T00:28:23.866Z,22.54
2018-05-29T00:30:51.392Z,22.52
2018-05-29T00:33:18.876Z,22.50
2018-05-29T00:35:46.395Z,22.46
2018-05-29T00:38:13.946Z,22.45
2018-05-29T00:40:41.553Z,22.54
2018-05-29T00:43:09.054Z,22.35
2018-05-29T00:45:36.659Z,22.49
2018-05-29T00:48:04.177Z,22.53
2018-05-29T00:50:31.653Z,22.35
2018-05-29T00:52:59.149Z,22.48
2018-05-29T00:55:37.494Z,22.33
2018-05-29T00:58:05.000Z,22.32
2018-05-29T01:00:32.504Z,22.31
2018-05-29T01:03:00.036Z,22.35
2018-05-29T01:05:27.531Z,22.24
2018-05-29T01:07:55.054Z,22.21
2018-05-29T01:10:22.552Z,22.36
2018-05-29T01:12:50.096Z,22.36
2018-05-29T01:15:17.609Z,22.14
2018-05-29T01:17:45.135Z,22.10
2018-05-29T01:20:12.624Z,22.20
2018-05-29T01:22:40.164Z,22.34
2018-05-29T01:25:07.663Z,22.13
2018-05-29T01:27:35.148Z,22.18
2018-05-29T01:30:02.681Z,22.16
2018-05-29T01:32:30.181Z,22.04
2018-05-29T01:34:57.704Z,22.12
2018-05-29T01:37:25.230Z,22.02
2018-05-29T01:39:52.705Z,22.08
2018-05-29T01:42:21.153Z,21.91
2018-05-29T01:44:48.656Z,21.95
2018-05-29T01:47:16.184Z,22.00
2018-05-29T01:49:43.702Z,21.94
2018-05-29T01:52:11.220Z,21.79
2018-05-29T01:54:38.838Z,21.78
2018-05-29T01:57:06.325Z,21.87
2018-05-29T01:59:33.839Z,21.82
2018-05-29T02:02:01.389Z,21.76
2018-05-29T02:04:28.967Z,21.69
2018-05-29T02:06:56.458Z,21.66
2018-05-29T02:09:23.945Z,21.65
2018-05-29T02:11:51.479Z,21.73
2018-05-29T02:14:18.990Z,21.71
2018-05-29T02:16:46.521Z,21.61
2018-05-29T02:19:14.007Z,21.61
2018-05-29T02:21:41.501Z,21.48
2018-05-29T02:24:09.193Z,21.52
2018-05-29T02:26:36.688Z,21.44
2018-05-29T02:29:04.214Z,21.52
2018-05-29T02:31:31.726Z,21.48
2018-05-29T02:33:59.243Z,21.49
2018-05-29T02:36:26.751Z,21.55
2018-05-29T02:38:54.260Z,21.36
2018-05-29T02:41:21.769Z,21.32
2018-05-29T02:43:49.306Z,21.28
2018-05-29T02:46:16.812Z,21.36
2018-05-29T02:48:44.323Z,21.24
2018-05-29T02:51:11.862Z,21.19
2018-05-29T02:53:39.363Z,21.29
2018-05-29T02:56:06.913Z,21.31
2018-05-29T02:58:34.451Z,21.30
2018-05-29T03:01:01.941Z,21.35
2018-05-29T03:03:29.450Z,21.32
2018-05-29T03:05:56.936Z,21.29
2018-05-29T03:08:24.469Z,21.29
2018-05-29T03:10:51.967Z,21.12
2018-05-29T03:13:19.513Z,21.26
2018-05-29T03:15:46.982Z,21.13
2018-05-29T03:18:14.463Z,21.35
2018-05-29T03:20:41.996Z,21.31
2018-05-29T03:23:09.497Z,21.37
2018-05-29T03:25:37.013Z,21.33
2018-05-29T03:28:04.513Z,21.38
2018-05-29T03:30:32.010Z,21.33
2018-05-29T03:32:59.551Z,21.31
2018-05-29T03:35:27.081Z,21.30
2018-05-29T03:37:54.612Z,21.26
2018-05-29T03:40:22.135Z,21.27
2018-05-29T03:42:49.641Z,21.24
2018-05-29T03:45:17.152Z,21.32
2018-05-29T03:47:44.649Z,21.50
2018-05-29T03:50:12.169Z,21.54
2018-05-29T03:52:39.659Z,21.47
2018-05-29T03:55:07.168Z,21.40
2018-05-29T03:57:34.649Z,21.47
2018-05-29T04:00:03.023Z,22.98
2018-05-29T04:02:30.656Z,23.80
2018-05-29T04:05:02.818Z,24.06
2018-05-29T04:07:30.348Z,24.60
2018-05-29T04:09:57.831Z,24.94
2018-05-29T04:12:25.300Z,25.05
2018-05-29T04:14:52.813Z,25.28
2018-05-29T04:17:20.283Z,25.34
2018-05-29T04:19:47.755Z,24.98
2018-05-29T04:22:15.281Z,24.02
2018-05-29T04:24:42.892Z,23.99
2018-05-29T04:27:10.455Z,22.97
2018-05-29T04:29:37.954Z,22.60
2018-05-29T04:32:05.459Z,22.43
2018-05-29T04:34:33.040Z,22.23
2018-05-29T04:37:00.577Z,22.06
2018-05-29T04:39:28.105Z,22.21
2018-05-29T04:41:55.631Z,22.19
2018-05-29T04:44:23.104Z,22.16
2018-05-29T04:46:50.721Z,22.19
2018-05-29T04:49:18.218Z,22.14
2018-05-29T04:51:45.719Z,22.18
2018-05-29T04:54:13.202Z,22.13
2018-05-29T04:56:40.743Z,22.18
2018-05-29T04:59:08.265Z,22.17
2018-05-29T05:01:35.752Z,22.19
2018-05-29T05:04:03.263Z,22.20
2018-05-29T05:06:30.787Z,22.24
2018-05-29T05:08:58.321Z,22.24
2018-05-29T05:11:25.780Z,22.30
2018-05-29T05:13:53.343Z,22.31
2018-05-29T05:16:20.820Z,22.32
2018-05-29T05:18:48.914Z,22.19
2018-05-29T05:21:17.067Z,22.29
2018-05-29T05:23:44.685Z,22.19
2018-05-29T05:26:12.165Z,22.28
2018-05-29T05:28:39.667Z,22.32
2018-05-29T05:31:07.179Z,22.28
2018-05-29T05:33:34.646Z,22.32
2018-05-29T05:36:02.176Z,22.37
2018-05-29T05:38:29.673Z,22.39
2018-05-29T05:40:57.184Z,22.47
2018-05-29T05:43:24.672Z,22.46
2018-05-29T05:45:52.200Z,22.52
2018-05-29T05:48:19.705Z,22.57
2018-05-29T05:50:47.608Z,22.58
2018-05-29T05:53:15.108Z,22.53
2018-05-29T05:55:42.728Z,22.52
2018-05-29T05:58:10.202Z,22.59
2018-05-29T06:00:37.719Z,22.61
2018-05-29T06:03:05.193Z,22.63
2018-05-29T06:05:32.782Z,22.64
2018-05-29T06:08:00.299Z,22.79
2018-05-29T06:10:27.767Z,22.82
2018-05-29T06:12:55.278Z,22.81
2018-05-29T06:15:22.870Z,22.93
2018-05-29T06:17:50.366Z,22.84
2018-05-29T06:20:17.901Z,22.90
2018-05-29T06:22:45.422Z,23.04
2018-05-29T06:25:12.934Z,23.00
2018-05-29T06:27:40.447Z,23.00
2018-05-29T06:30:07.945Z,23.01
2018-05-29T06:32:35.475Z,23.14
2018-05-29T06:35:02.999Z,23.14
2018-05-29T06:37:30.810Z,23.14
2018-05-29T06:39:58.320Z,23.15
2018-05-29T06:42:25.815Z,23.26
2018-05-29T06:44:53.383Z,23.43
2018-05-29T06:47:20.872Z,23.46
2018-05-29T06:49:48.389Z,23.47
2018-05-29T06:52:15.883Z,23.53
2018-05-29T06:54:43.424Z,23.61
2018-05-29T06:57:10.925Z,23.53
2018-05-29T06:59:38.482Z,23.52
2018-05-29T07:02:06.064Z,23.40
2018-05-29T07:04:33.554Z,23.61
2018-05-29T07:07:01.091Z,23.53
2018-05-29T07:09:30.404Z,23.59
2018-05-29T07:11:57.914Z,23.65
2018-05-29T07:14:25.447Z,23.70
2018-05-29T07:16:52.958Z,23.80
2018-05-29T07:19:20.473Z,23.82
2018-05-29T07:21:47.995Z,23.86
2018-05-29T07:24:15.491Z,23.84
2018-05-29T07:26:42.992Z,24.00
2018-05-29T07:29:10.493Z,24.03
2018-05-29T07:31:38.000Z,24.20
2018-05-29T07:34:05.508Z,24.26
2018-05-29T07:36:32.975Z,24.24
2018-05-29T07:39:00.546Z,24.26
2018-05-29T07:41:28.028Z,24.41
2018-05-29T07:43:55.619Z,24.40
2018-05-29T07:46:23.106Z,24.62
2018-05-29T07:48:50.614Z,24.47
2018-05-29T07:51:18.099Z,24.51
2018-05-29T07:53:45.602Z,24.76
2018-05-29T07:56:13.120Z,24.72
2018-05-29T07:58:40.607Z,24.69
2018-05-29T08:01:08.135Z,24.71
2018-05-29T08:03:35.709Z,24.61
2018-05-29T08:06:03.207Z,24.89
2018-05-29T08:08:30.715Z,24.98
2018-05-29T08:10:58.212Z,25.13
2018-05-29T08:13:25.823Z,25.15
2018-05-29T08:15:53.309Z,25.12
2018-05-29T08:18:20.789Z,25.33
2018-05-29T08:20:48.317Z,25.32
2018-05-29T08:23:15.889Z,25.16
2018-05-29T08:25:43.405Z,25.30
2018-05-29T08:28:11.072Z,25.34
2018-05-29T08:30:38.572Z,25.54
2018-05-29T08:33:06.101Z,25.63
2018-05-29T08:35:34.308Z,25.19
2018-05-29T08:38:01.849Z,25.66
2018-05-29T08:40:29.413Z,25.85
2018-05-29T08:42:56.930Z,25.79
2018-05-29T08:45:24.410Z,25.65
2018-05-29T08:47:51.942Z,25.70
2018-05-29T08:50:19.521Z,25.60
2018-05-29T08:52:47.036Z,25.83
2018-05-29T08:55:14.565Z,25.87
2018-05-29T08:57:42.036Z,25.73
2018-05-29T09:00:09.583Z,26.06
2018-05-29T09:02:37.090Z,25.88
2018-05-29T09:05:04.632Z,26.46
2018-05-29T09:07:32.154Z,26.30
2018-05-29T09:09:59.650Z,26.27
2018-05-29T09:12:27.177Z,26.37
2018-05-29T09:14:55.276Z,26.27
2018-05-29T09:17:23.102Z,26.64
2018-05-29T09:19:50.587Z,26.75
2018-05-29T09:22:18.081Z,26.73
2018-05-29T09:24:45.581Z,26.52
2018-05-29T09:27:13.119Z,26.79
2018-05-29T09:29:40.707Z,26.80
2018-05-29T09:32:08.177Z,26.71
2018-05-29T09:34:35.672Z,26.68
2018-05-29T09:37:03.214Z,26.78
2018-05-29T09:39:30.745Z,27.29
2018-05-29T09:41:58.268Z,26.94
2018-05-29T09:44:25.791Z,26.98
2018-05-29T09:46:53.332Z,26.87
2018-05-29T09:49:20.848Z,26.97
2018-05-29T09:51:48.363Z,27.00
2018-05-29T09:54:15.860Z,27.23
2018-05-29T09:56:43.437Z,27.10
2018-05-29T09:59:10.953Z,27.43
2018-05-29T10:01:38.451Z,27.24
2018-05-29T10:04:05.977Z,27.27
2018-05-29T10:06:33.447Z,27.46
2018-05-29T10:09:00.952Z,27.50
2018-05-29T10:11:28.425Z,27.46
2018-05-29T10:13:55.911Z,27.44
2018-05-29T10:16:23.407Z,27.59
2018-05-29T10:18:50.950Z,27.76
2018-05-29T10:21:18.464Z,27.77
2018-05-29T10:23:45.956Z,27.57
2018-05-29T10:26:13.504Z,27.81
2018-05-29T10:28:40.998Z,27.68
2018-05-29T10:31:08.532Z,27.93
2018-05-29T10:33:36.036Z,27.81
2018-05-29T10:36:03.581Z,27.81
2018-05-29T10:38:31.125Z,28.08
2018-05-29T10:40:58.617Z,28.08
2018-05-29T10:43:26.144Z,27.99
2018-05-29T10:45:53.656Z,28.24
2018-05-29T10:48:21.187Z,28.18
2018-05-29T10:50:48.681Z,28.16
2018-05-29T10:53:16.173Z,28.39
2018-05-29T10:55:43.733Z,28.30
2018-05-29T10:58:11.262Z,28.56
2018-05-29T11:00:38.759Z,28.60
2018-05-29T11:03:06.240Z,28.54
2018-05-29T11:05:33.739Z,28.30
2018-05-29T11:08:01.212Z,28.29
2018-05-29T11:10:28.709Z,28.57
2018-05-29T11:12:56.221Z,28.53
2018-05-29T11:15:24.588Z,28.48
2018-05-29T11:17:52.113Z,28.65
2018-05-29T11:20:19.580Z,28.76
2018-05-29T11:22:47.188Z,28.87
2018-05-29T11:25:14.943Z,28.67
2018-05-29T11:27:42.602Z,28.93
2018-05-29T11:30:10.098Z,28.77
2018-05-29T11:32:37.700Z,28.88
2018-05-29T11:35:05.215Z,29.04
2018-05-29T11:37:32.748Z,29.17
2018-05-29T11:40:00.232Z,28.91
2018-05-29T11:42:27.781Z,29.21
2018-05-29T11:44:55.265Z,29.12
2018-05-29T11:47:22.779Z,29.38
2018-05-29T11:49:50.300Z,29.34
2018-05-29T11:52:17.824Z,29.33
2018-05-29T11:54:45.382Z,29.07
2018-05-29T11:57:12.879Z,29.29
2018-05-29T11:59:40.394Z,29.38
2018-05-29T12:02:08.240Z,29.25
2018-05-29T12:04:35.728Z,29.26
2018-05-29T12:07:03.247Z,29.46
2018-05-29T12:09:30.892Z,29.50
2018-05-29T12:12:10.071Z,29.45
2018-05-29T12:14:37.572Z,29.72
2018-05-29T12:17:05.052Z,29.72
2018-05-29T12:19:32.591Z,29.81
2018-05-29T12:22:00.127Z,29.69
2018-05-29T12:24:27.611Z,30.04
2018-05-29T12:26:55.131Z,29.92
2018-05-29T12:29:22.622Z,29.88
2018-05-29T12:31:50.224Z,30.03
2018-05-29T12:34:17.712Z,30.11
2018-05-29T12:36:45.217Z,29.95
2018-05-29T12:39:12.750Z,30.09
2018-05-29T12:41:40.299Z,30.06
2018-05-29T12:44:07.772Z,30.26
2018-05-29T12:46:35.311Z,30.12
2018-05-29T12:49:02.845Z,30.02
2018-05-29T12:51:30.322Z,30.24
2018-05-29T12:53:57.817Z,30.29
2018-05-29T12:56:25.293Z,30.30
2018-05-29T12:58:52.893Z,30.47
2018-05-29T13:01:20.389Z,30.37
2018-05-29T13:03:47.907Z,30.08
2018-05-29T13:06:15.412Z,30.40
2018-05-29T13:08:42.945Z,30.29
2018-05-29T13:11:10.501Z,30.27
2018-05-29T13:13:37.966Z,30.53
2018-05-29T13:16:05.521Z,30.62
2018-05-29T13:18:33.014Z,30.54
2018-05-29T13:21:00.513Z,30.62
2018-05-29T13:23:28.018Z,30.88
2018-05-29T13:25:55.481Z,30.81
2018-05-29T13:28:23.093Z,30.55
2018-05-29T13:30:50.651Z,30.59
2018-05-29T13:33:18.176Z,30.69
2018-05-29T13:35:45.657Z,30.51
2018-05-29T13:38:13.159Z,30.81
2018-05-29T13:40:40.857Z,30.49
2018-05-29T13:43:08.337Z,30.96
2018-05-29T13:45:35.830Z,30.93
2018-05-29T13:48:03.464Z,31.07
2018-05-29T13:50:30.964Z,30.78
2018-05-29T13:52:58.492Z,31.05
2018-05-29T13:55:26.004Z,30.92
2018-05-29T13:57:53.537Z,31.02
2018-05-29T14:00:21.023Z,31.01
2018-05-29T14:02:48.560Z,31.27
2018-05-29T14:05:16.086Z,31.25
2018-05-29T14:07:43.574Z,31.21
2018-05-29T14:10:11.091Z,31.31
2018-05-29T14:12:38.682Z,31.10
2018-05-29T14:15:06.259Z,31.27
2018-05-29T14:17:33.779Z,31.17
2018-05-29T14:20:01.284Z,31.31
2018-05-29T14:22:28.919Z,31.18
2018-05-29T14:24:56.395Z,31.39
2018-05-29T14:27:23.917Z,31.47
2018-05-29T14:29:51.500Z,31.24
2018-05-29T14:32:19.313Z,31.32
2018-05-29T14:34:46.858Z,31.28
2018-05-29T14:37:14.356Z,31.60
2018-05-29T14:39:41.986Z,31.56
2018-05-29T14:42:09.485Z,31.36
2018-05-29T14:44:36.991Z,31.53
2018-05-29T14:47:04.524Z,31.62
2018-05-29T14:49:32.082Z,31.80
2018-05-29T14:51:59.558Z,31.85
2018-05-29T14:54:27.068Z,31.84
2018-05-29T14:56:54.586Z,31.62
2018-05-29T14:59:22.143Z,31.83
2018-05-29T15:01:49.670Z,32.00
2018-05-29T15:04:17.143Z,31.90
2018-05-29T15:06:44.646Z,32.10
2018-05-29T15:09:12.129Z,32.21
2018-05-29T15:11:39.630Z,32.00
2018-05-29T15:14:07.101Z,31.99
2018-05-29T15:16:34.668Z,32.19
2018-05-29T15:19:02.152Z,31.99
2018-05-29T15:21:29.688Z,32.08
2018-05-29T15:23:57.199Z,32.09
2018-05-29T15:26:24.780Z,32.18
2018-05-29T15:28:52.270Z,32.11
2018-05-29T15:31:19.755Z,32.22
2018-05-29T15:33:47.273Z,32.30
2018-05-29T15:36:14.827Z,32.14
2018-05-29T15:38:42.339Z,32.13
2018-05-29T15:41:09.824Z,32.23
2018-05-29T15:43:38.044Z,32.14
2018-05-29T15:46:05.546Z,32.17
2018-05-29T15:51:06.815Z,32.39
2018-05-29T15:53:34.306Z,32.34
2018-05-29T15:56:01.833Z,32.42
2018-05-29T15:58:29.382Z,32.50
2018-05-29T16:00:56.896Z,32.39
2018-05-29T16:03:24.391Z,32.46
2018-05-29T16:05:52.031Z,32.26
2018-05-29T16:08:19.496Z,32.26
2018-05-29T16:10:47.463Z,32.39
2018-05-29T16:13:14.953Z,32.49
2018-05-29T16:15:42.420Z,32.40
2018-05-29T16:18:10.115Z,32.59
2018-05-29T16:20:37.585Z,32.53
2018-05-29T16:23:05.096Z,32.41
2018-05-29T16:25:32.581Z,32.47
2018-05-29T16:28:00.065Z,32.58
2018-05-29T16:30:27.591Z,32.44
2018-05-29T16:32:55.086Z,32.44
2018-05-29T16:35:22.609Z,32.30
2018-05-29T16:37:50.099Z,32.36
2018-05-29T16:40:17.581Z,32.55
2018-05-29T16:42:45.101Z,32.48
2018-05-29T16:45:13.231Z,32.76
2018-05-29T16:47:40.752Z,32.74
2018-05-29T16:50:08.246Z,32.74
2018-05-29T16:52:35.819Z,32.68
2018-05-29T16:55:03.414Z,32.72
2018-05-29T16:57:31.382Z,32.46
2018-05-29T16:59:58.866Z,32.55
2018-05-29T17:02:26.357Z,32.73
2018-05-29T17:04:53.917Z,32.68
2018-05-29T17:07:21.396Z,32.46
2018-05-29T17:09:48.902Z,32.47
2018-05-29T17:12:16.369Z,32.57
2018-05-29T17:14:43.834Z,32.58
2018-05-29T17:17:11.435Z,32.54
2018-05-29T17:19:38.925Z,32.43
2018-05-29T17:22:06.431Z,32.45
2018-05-29T17:24:34.000Z,32.46
2018-05-29T17:27:01.997Z,32.32
2018-05-29T17:29:29.543Z,32.24
2018-05-29T17:31:57.061Z,32.40
2018-05-29T17:34:24.538Z,32.26
2018-05-29T17:36:52.002Z,32.23
2018-05-29T17:39:19.499Z,32.29
2018-05-29T17:41:46.996Z,32.38
2018-05-29T17:44:14.607Z,32.23
2018-05-29T17:46:42.074Z,32.22
2018-05-29T17:49:09.583Z,32.06
2018-05-29T17:51:37.093Z,32.20
2018-05-29T17:54:04.604Z,32.08
2018-05-29T17:56:32.130Z,32.27
2018-05-29T17:58:59.620Z,32.35
2018-05-29T18:01:27.216Z,32.02
2018-05-29T18:03:54.683Z,31.93
2018-05-29T18:06:22.835Z,31.95
2018-05-29T18:08:50.322Z,31.59
2018-05-29T18:11:17.795Z,31.61
2018-05-29T18:13:45.287Z,31.43
2018-05-29T18:16:12.839Z,31.37
2018-05-29T18:18:40.347Z,31.46
2018-05-29T18:21:07.829Z,31.46
2018-05-29T18:23:35.346Z,31.19
2018-05-29T18:26:02.830Z,31.33
2018-05-29T18:28:30.448Z,31.13
2018-05-29T18:30:57.929Z,31.24
2018-05-29T18:33:25.401Z,31.26
2018-05-29T18:35:52.960Z,31.09
2018-05-29T18:38:20.432Z,30.98
2018-05-29T18:40:47.929Z,30.92
2018-05-29T18:43:15.460Z,30.96
2018-05-29T18:45:43.024Z,30.94
2018-05-29T18:48:10.524Z,30.80
2018-05-29T18:50:38.054Z,30.71
2018-05-29T18:53:05.591Z,30.58
2018-05-29T18:55:33.147Z,30.71
2018-05-29T18:58:00.681Z,30.47
2018-05-29T19:00:28.175Z,30.61
2018-05-29T19:02:55.697Z,30.50
2018-05-29T19:05:23.187Z,30.32
2018-05-29T19:07:50.723Z,30.21
2018-05-29T19:10:18.217Z,30.10
2018-05-29T19:12:45.731Z,29.98
2018-05-29T19:15:13.288Z,30.18
2018-05-29T19:17:40.774Z,30.07
2018-05-29T19:20:08.325Z,30.10
2018-05-29T19:22:35.810Z,30.16
2018-05-29T19:25:03.376Z,30.07
2018-05-29T19:27:30.853Z,29.86
2018-05-29T19:29:58.396Z,29.66
2018-05-29T19:32:25.893Z,29.62
2018-05-29T19:34:53.464Z,29.53
2018-05-29T19:37:20.969Z,29.25
2018-05-29T19:39:48.484Z,29.42
2018-05-29T19:42:15.976Z,29.50
2018-05-29T19:44:43.480Z,29.22
2018-05-29T19:47:10.981Z,29.12
2018-05-29T19:49:38.467Z,29.20
2018-05-29T19:52:05.961Z,28.95
2018-05-29T19:54:33.430Z,29.06
2018-05-29T19:57:00.941Z,28.87
2018-05-29T19:59:28.530Z,28.71
2018-05-29T20:01:55.973Z,28.99
2018-05-29T20:04:23.468Z,28.87
2018-05-29T20:06:51.028Z,28.86
2018-05-29T20:09:18.475Z,28.90
2018-05-29T20:11:45.966Z,28.78
2018-05-29T20:14:13.472Z,28.72
2018-05-29T20:16:41.046Z,28.75
2018-05-29T20:19:08.561Z,28.43
2018-05-29T20:21:36.111Z,28.56
2018-05-29T20:24:03.647Z,28.60
2018-05-29T20:26:31.146Z,28.43
2018-05-29T20:28:58.673Z,28.23
2018-05-29T20:31:26.219Z,28.20
2018-05-29T20:33:53.716Z,28.15
2018-05-29T20:36:22.259Z,28.07
2018-05-29T20:38:49.759Z,28.25
2018-05-29T20:41:17.239Z,28.22
2018-05-29T20:43:44.774Z,28.04
2018-05-29T20:46:12.279Z,27.96
2018-05-29T20:48:39.784Z,28.18
2018-05-29T20:51:07.290Z,28.02
2018-05-29T20:53:34.790Z,27.97
2018-05-29T20:56:02.355Z,27.96
2018-05-29T20:58:29.845Z,28.01
2018-05-29T21:00:57.346Z,28.04
2018-05-29T21:03:24.846Z,27.86
2018-05-29T21:05:52.358Z,27.99
2018-05-29T21:08:19.833Z,28.00
2018-05-29T21:10:47.354Z,27.72
2018-05-29T21:13:14.849Z,27.94
2018-05-29T21:15:42.371Z,28.14
2018-05-29T21:18:09.872Z,28.03
2018-05-29T21:20:37.414Z,27.92
2018-05-29T21:23:04.970Z,27.98
2018-05-29T21:25:32.452Z,27.81
2018-05-29T21:27:59.943Z,27.82
2018-05-29T21:30:27.516Z,27.74
2018-05-29T21:32:55.084Z,27.70
2018-05-29T21:35:22.559Z,27.64
2018-05-29T21:37:50.054Z,27.48
2018-05-29T21:40:17.578Z,27.46
2018-05-29T21:42:45.069Z,27.44
2018-05-29T21:45:12.582Z,27.38
2018-05-29T21:47:40.074Z,27.33
2018-05-29T21:50:07.596Z,27.19
2018-05-29T21:52:35.140Z,27.17
2018-05-29T21:55:02.611Z,27.12
2018-05-29T21:57:30.147Z,27.30
2018-05-29T21:59:57.703Z,27.11
2018-05-29T22:02:25.232Z,26.97
2018-05-29T22:04:52.747Z,26.83
2018-05-29T22:07:20.256Z,26.95
2018-05-29T22:09:47.747Z,27.01
2018-05-29T22:12:15.318Z,26.95
2018-05-29T22:14:42.889Z,26.77
2018-05-29T22:17:10.350Z,26.62
2018-05-29T22:19:37.896Z,26.46
2018-05-29T22:22:05.478Z,26.44
2018-05-29T22:24:32.945Z,26.51
2018-05-29T22:27:01.063Z,26.55
2018-05-29T22:29:28.557Z,26.57
2018-05-29T22:31:56.162Z,26.45
2018-05-29T22:34:23.632Z,26.21
2018-05-29T22:36:51.175Z,26.29
2018-05-29T22:39:18.658Z,26.31
2018-05-29T22:41:46.199Z,26.26
2018-05-29T22:44:13.681Z,26.20
2018-05-29T22:46:41.168Z,26.02
2018-05-29T22:49:08.645Z,25.93
2018-05-29T22:51:36.144Z,25.76
2018-05-29T22:54:03.668Z,25.77
2018-05-29T22:56:31.146Z,25.55
2018-05-29T22:58:58.687Z,25.65
2018-05-29T23:01:26.213Z,25.59
2018-05-29T23:03:53.719Z,25.56
2018-05-29T23:06:21.240Z,25.41
2018-05-29T23:08:48.764Z,25.45
2018-05-29T23:11:16.251Z,25.42
2018-05-29T23:13:43.754Z,25.35
2018-05-29T23:16:11.276Z,25.39
2018-05-29T23:18:38.800Z,25.29
2018-05-29T23:21:06.274Z,25.47
2018-05-29T23:23:33.791Z,25.36
2018-05-29T23:26:01.287Z,25.37
2018-05-29T23:28:28.779Z,25.47
2018-05-29T23:30:56.282Z,25.08
2018-05-29T23:33:23.767Z,25.30
2018-05-29T23:35:51.296Z,25.18
2018-05-29T23:38:18.795Z,25.48
2018-05-29T23:40:46.321Z,25.23
2018-05-29T23:43:13.836Z,25.15
2018-05-29T23:45:41.413Z,25.07
2018-05-29T23:48:08.889Z,25.15
2018-05-29T23:50:36.378Z,24.94
2018-05-29T23:53:03.868Z,25.18
2018-05-29T23:55:31.430Z,25.06
2018-05-29T23:57:58.902Z,25.06
